Time;durP1;ratioP1;P1;durP2;ratioP2;P2;SDS_P1;SDS_P2;PMS_P1;PMS_P2;Temp;Humidity;BMP_temperature;BMP_pressure;BME280_temperature;BME280_humidity;BME280_pressure;Samples;Min_cycle;Max_cycle;Signal;HPM_P1;HPM_P2
2024/02/13 00:00:55;;;;;;;13.55;8.82;;;;;;;;;;5031429;28;20025;-60
2024/02/13 00:03:22;;;;;;;13.60;8.77;;;;;;;;;;5031431;28;20048;-58
2024/02/13 00:05:48;;;;;;;13.55;8.80;;;;;;;;;;5032408;28;20048;-55
2024/02/13 00:08:14;;;;;;;13.70;9.00;;;;;;;;;;5032441;28;20368;-57
2024/02/13 00:10:40;;;;;;;13.80;9.30;;;;;;;;;;5032197;28;20079;-57
2024/02/13 00:13:06;;;;;;;13.68;8.95;;;;;;;;;;5031824;28;20025;-54
2024/02/13 00:15:32;;;;;;;13.80;9.32;;;;;;;;;;5030458;28;20526;-56
2024/02/13 00:17:59;;;;;;;13.73;9.15;;;;;;;;;;5031674;28;20057;-58
2024/02/13 00:20:25;;;;;;;13.83;9.57;;;;;;;;;;5031700;28;20033;-58
2024/02/13 00:22:53;;;;;;;13.70;8.93;;;;;;;;;;5031652;28;20068;-53
2024/02/13 00:25:19;;;;;;;13.63;9.00;;;;;;;;;;5030821;28;20087;-57
2024/02/13 00:27:45;;;;;;;13.95;9.80;;;;;;;;;;5030451;28;20021;-57
2024/02/13 00:30:12;;;;;;;13.90;9.60;;;;;;;;;;5031533;28;20061;-57
2024/02/13 00:32:38;;;;;;;14.05;9.60;;;;;;;;;;5031441;28;20396;-57
2024/02/13 00:35:08;;;;;;;13.85;9.35;;;;;;;;;;5031559;28;20025;-58
2024/02/13 00:37:36;;;;;;;13.80;9.40;;;;;;;;;;5031592;28;20029;-60
2024/02/13 00:40:05;;;;;;;13.93;9.30;;;;;;;;;;5031748;28;20021;-58
2024/02/13 00:42:31;;;;;;;14.07;9.82;;;;;;;;;;5031187;28;20116;-57
2024/02/13 00:45:00;;;;;;;13.80;9.30;;;;;;;;;;5031370;28;20022;-58
2024/02/13 00:47:28;;;;;;;13.85;9.27;;;;;;;;;;5031460;28;20092;-57
2024/02/13 00:49:54;;;;;;;13.88;9.50;;;;;;;;;;5031629;28;20049;-58
2024/02/13 00:52:21;;;;;;;13.85;9.48;;;;;;;;;;5031290;28;20061;-57
2024/02/13 00:54:47;;;;;;;13.82;9.48;;;;;;;;;;5031397;28;20053;-59
2024/02/13 00:57:13;;;;;;;15.13;10.73;;;;;;;;;;5031583;28;20084;-58
2024/02/13 00:59:40;;;;;;;13.90;9.52;;;;;;;;;;5031234;28;20033;-58
2024/02/13 01:02:06;;;;;;;13.60;8.85;;;;;;;;;;5029419;28;20442;-59
2024/02/13 01:04:32;;;;;;;13.73;9.07;;;;;;;;;;5030843;28;20404;-54
2024/02/13 01:06:58;;;;;;;14.40;10.23;;;;;;;;;;5030976;28;20087;-58
2024/02/13 01:09:25;;;;;;;13.75;9.18;;;;;;;;;;5030080;28;20112;-58
2024/02/13 01:11:51;;;;;;;13.73;9.10;;;;;;;;;;5030506;28;20044;-57
2024/02/13 01:14:17;;;;;;;13.60;8.85;;;;;;;;;;5029481;28;20030;-60
2024/02/13 01:16:44;;;;;;;13.70;9.05;;;;;;;;;;5030561;28;20649;-57
2024/02/13 01:19:10;;;;;;;13.70;9.02;;;;;;;;;;5030689;28;20055;-58
2024/02/13 01:21:36;;;;;;;13.48;8.60;;;;;;;;;;5029179;28;20091;-54
2024/02/13 01:24:02;;;;;;;17.30;10.38;;;;;;;;;;5030447;28;20033;-57
2024/02/13 01:26:29;;;;;;;13.60;8.75;;;;;;;;;;5029041;28;20026;-57
2024/02/13 01:28:55;;;;;;;13.50;8.68;;;;;;;;;;5030453;28;20032;-56
2024/02/13 01:31:21;;;;;;;13.90;9.50;;;;;;;;;;5030312;28;20034;-54
2024/02/13 01:33:47;;;;;;;13.57;8.65;;;;;;;;;;5030359;28;20034;-57
2024/02/13 01:36:13;;;;;;;13.68;9.00;;;;;;;;;;5029586;28;20499;-57
2024/02/13 01:38:39;;;;;;;13.63;8.80;;;;;;;;;;5030260;28;20033;-57
2024/02/13 01:41:05;;;;;;;13.63;9.00;;;;;;;;;;5030404;28;20147;-56
2024/02/13 01:43:32;;;;;;;13.75;9.15;;;;;;;;;;5030098;28;20034;-56
2024/02/13 01:45:59;;;;;;;13.80;9.23;;;;;;;;;;5030116;28;20025;-58
2024/02/13 01:48:25;;;;;;;14.25;9.25;;;;;;;;;;5030116;28;20120;-58
2024/02/13 01:50:51;;;;;;;13.73;9.25;;;;;;;;;;5028786;28;20499;-53
2024/02/13 01:53:18;;;;;;;13.95;9.75;;;;;;;;;;5030091;28;20030;-57
2024/02/13 01:55:45;;;;;;;13.80;9.48;;;;;;;;;;5030055;28;20426;-57
2024/02/13 01:58:12;;;;;;;13.93;9.65;;;;;;;;;;5029231;28;20373;-54
2024/02/13 02:00:38;;;;;;;13.80;9.32;;;;;;;;;;5029785;28;20029;-55
2024/02/13 02:03:04;;;;;;;13.70;9.20;;;;;;;;;;5030193;28;20041;-57
2024/02/13 02:05:31;;;;;;;13.75;9.30;;;;;;;;;;5030245;28;20017;-56
2024/02/13 02:07:58;;;;;;;13.85;9.43;;;;;;;;;;5031024;28;20361;-52
2024/02/13 02:10:24;;;;;;;14.45;10.38;;;;;;;;;;5029661;28;20033;-56
2024/02/13 02:12:50;;;;;;;13.90;9.68;;;;;;;;;;5029777;28;20491;-52
2024/02/13 02:15:16;;;;;;;13.95;9.77;;;;;;;;;;5029808;28;20030;-52
2024/02/13 02:17:55;;;;;;;14.00;10.02;;;;;;;;;;5029642;28;20026;-54
2024/02/13 02:20:22;;;;;;;;;;;;;;;;;;5030121;28;20030;-57
2024/02/13 02:22:48;;;;;;;14.00;9.88;;;;;;;;;;5029354;28;20003;-58
2024/02/13 02:25:15;;;;;;;13.95;9.73;;;;;;;;;;5029218;28;20145;-57
2024/02/13 02:27:43;;;;;;;14.98;11.35;;;;;;;;;;5029160;28;20084;-54
2024/02/13 02:30:09;;;;;;;14.40;10.38;;;;;;;;;;5029066;28;20097;-56
2024/02/13 02:32:35;;;;;;;14.80;10.48;;;;;;;;;;5029141;28;20033;-57
2024/02/13 02:35:01;;;;;;;14.35;10.38;;;;;;;;;;5028992;28;20041;-55
2024/02/13 02:37:27;;;;;;;15.23;10.80;;;;;;;;;;5029201;28;20395;-56
2024/02/13 02:39:53;;;;;;;14.05;10.00;;;;;;;;;;5029049;28;20029;-57
2024/02/13 02:42:21;;;;;;;14.13;10.32;;;;;;;;;;5028670;28;20049;-57
2024/02/13 02:44:47;;;;;;;14.43;9.98;;;;;;;;;;5028797;28;20110;-59
2024/02/13 02:47:13;;;;;;;14.00;9.95;;;;;;;;;;5029043;28;20075;-57
2024/02/13 02:49:40;;;;;;;14.23;10.48;;;;;;;;;;5028871;28;20480;-56
2024/02/13 02:52:07;;;;;;;14.60;10.93;;;;;;;;;;5027412;28;20029;-58
2024/02/13 02:54:34;;;;;;;14.10;10.20;;;;;;;;;;5028828;28;20120;-57
2024/02/13 02:57:01;;;;;;;14.00;9.93;;;;;;;;;;5029040;28;20033;-56
2024/02/13 02:59:27;;;;;;;13.95;9.68;;;;;;;;;;5028603;28;20449;-58
2024/02/13 03:01:53;;;;;;;13.93;9.75;;;;;;;;;;5028548;28;20028;-57
2024/02/13 03:04:19;;;;;;;14.98;10.35;;;;;;;;;;5028536;28;20495;-55
2024/02/13 03:06:45;;;;;;;14.02;10.00;;;;;;;;;;5029126;28;20033;-57
2024/02/13 03:09:12;;;;;;;13.88;9.65;;;;;;;;;;5029343;28;20026;-55
2024/02/13 03:11:38;;;;;;;14.02;10.07;;;;;;;;;;5029134;28;20092;-57
2024/02/13 03:14:04;;;;;;;13.98;10.07;;;;;;;;;;5028970;28;20030;-57
2024/02/13 03:16:34;;;;;;;15.05;11.20;;;;;;;;;;5028116;28;20028;-56
2024/02/13 03:19:02;;;;;;;14.30;10.20;;;;;;;;;;5029567;28;20014;-57
2024/02/13 03:21:28;;;;;;;14.40;10.32;;;;;;;;;;5028896;28;20449;-55
2024/02/13 03:23:54;;;;;;;14.20;10.60;;;;;;;;;;5028973;28;20100;-58
2024/02/13 03:26:20;;;;;;;14.43;10.45;;;;;;;;;;5028697;28;20440;-58
2024/02/13 03:28:46;;;;;;;14.00;10.07;;;;;;;;;;5028837;28;20470;-56
2024/02/13 03:31:12;;;;;;;15.00;10.90;;;;;;;;;;5028707;28;20030;-57
2024/02/13 03:33:38;;;;;;;14.75;11.48;;;;;;;;;;5028621;28;20073;-52
2024/02/13 03:36:04;;;;;;;14.80;10.85;;;;;;;;;;5027238;28;20467;-58
2024/02/13 03:38:30;;;;;;;14.80;10.60;;;;;;;;;;5028594;28;20344;-57
2024/02/13 03:40:56;;;;;;;14.00;10.02;;;;;;;;;;5027034;28;20059;-58
2024/02/13 03:43:22;;;;;;;14.07;10.10;;;;;;;;;;5028322;28;20018;-57
2024/02/13 03:45:48;;;;;;;16.05;11.57;;;;;;;;;;5028476;28;20410;-58
2024/02/13 03:48:16;;;;;;;14.07;10.10;;;;;;;;;;5028639;28;20021;-57
2024/02/13 03:50:42;;;;;;;14.10;10.30;;;;;;;;;;5028564;28;20108;-57
2024/02/13 03:53:08;;;;;;;14.05;10.13;;;;;;;;;;5028343;28;20195;-59
2024/02/13 03:55:34;;;;;;;14.20;10.30;;;;;;;;;;5028226;28;20040;-56
2024/02/13 03:58:01;;;;;;;15.85;12.63;;;;;;;;;;5028154;28;20513;-54
2024/02/13 04:00:27;;;;;;;14.18;10.38;;;;;;;;;;5029912;28;20033;-58
2024/02/13 04:02:52;;;;;;;14.30;10.60;;;;;;;;;;5031146;28;20021;-57
2024/02/13 04:05:19;;;;;;;14.48;10.82;;;;;;;;;;5032122;28;20104;-58
2024/02/13 04:07:45;;;;;;;14.10;10.38;;;;;;;;;;5032386;28;20497;-58
2024/02/13 04:10:11;;;;;;;14.15;10.27;;;;;;;;;;5030966;28;20021;-56
2024/02/13 04:12:38;;;;;;;14.82;11.60;;;;;;;;;;5032059;28;20433;-58
2024/02/13 04:15:04;;;;;;;14.20;10.55;;;;;;;;;;5031976;28;20126;-54
2024/02/13 04:17:30;;;;;;;14.25;10.60;;;;;;;;;;5031761;28;20029;-57
2024/02/13 04:19:56;;;;;;;14.20;10.50;;;;;;;;;;5031774;28;20479;-56
2024/02/13 04:22:22;;;;;;;14.20;10.45;;;;;;;;;;5031654;28;20106;-56
2024/02/13 04:24:49;;;;;;;14.35;10.80;;;;;;;;;;5031435;28;20455;-55
2024/02/13 04:27:15;;;;;;;14.20;10.52;;;;;;;;;;5031892;28;20029;-57
2024/02/13 04:29:42;;;;;;;14.20;10.43;;;;;;;;;;5031713;28;20068;-56
2024/02/13 04:32:09;;;;;;;16.40;11.32;;;;;;;;;;5031349;28;20491;-57
2024/02/13 04:34:35;;;;;;;14.05;10.25;;;;;;;;;;5031492;28;20033;-57
2024/02/13 04:37:01;;;;;;;15.32;12.07;;;;;;;;;;5031876;28;20374;-57
2024/02/13 04:39:27;;;;;;;14.30;10.80;;;;;;;;;;5031723;28;20033;-53
2024/02/13 04:41:53;;;;;;;14.13;10.32;;;;;;;;;;5031473;28;20102;-55
2024/02/13 04:44:20;;;;;;;14.23;10.50;;;;;;;;;;5031695;28;20488;-57
2024/02/13 04:46:46;;;;;;;14.98;11.30;;;;;;;;;;5031437;28;20503;-56
2024/02/13 04:49:12;;;;;;;14.13;10.18;;;;;;;;;;5031292;28;20033;-56
2024/02/13 04:51:38;;;;;;;14.88;12.40;;;;;;;;;;5030962;28;20035;-58
2024/02/13 04:54:04;;;;;;;14.85;10.93;;;;;;;;;;5031104;28;20034;-58
2024/02/13 04:56:30;;;;;;;14.30;10.80;;;;;;;;;;5030985;28;20459;-53
2024/02/13 04:58:56;;;;;;;19.25;15.38;;;;;;;;;;5030915;28;20025;-55
2024/02/13 05:01:24;;;;;;;15.02;12.40;;;;;;;;;;5030966;28;20144;-57
2024/02/13 05:09:04;;;;;;;15.00;12.43;;;;;;;;;;5030640;28;20479;-58
2024/02/13 05:11:30;;;;;;;14.50;11.40;;;;;;;;;;5030540;28;20021;-57
2024/02/13 05:13:59;;;;;;;14.38;11.00;;;;;;;;;;5030663;28;20021;-58
2024/02/13 05:16:25;;;;;;;14.40;10.95;;;;;;;;;;5029198;28;20021;-58
2024/02/13 05:18:51;;;;;;;18.42;12.07;;;;;;;;;;5030366;28;20030;-58
2024/02/13 05:21:21;;;;;;;21.88;17.80;;;;;;;;;;5030702;28;20029;-59
2024/02/13 05:23:50;;;;;;;14.27;10.82;;;;;;;;;;5030493;28;20021;-57
2024/02/13 05:26:20;;;;;;;14.60;11.32;;;;;;;;;;5030468;28;20029;-53
2024/02/13 05:28:46;;;;;;;14.30;10.75;;;;;;;;;;5030555;28;20028;-57
2024/02/13 05:31:12;;;;;;;16.13;12.05;;;;;;;;;;5030385;28;20072;-56
2024/02/13 05:33:39;;;;;;;17.25;13.35;;;;;;;;;;5030273;28;20526;-58
2024/02/13 05:36:05;;;;;;;15.15;11.57;;;;;;;;;;5029081;28;20021;-58
2024/02/13 05:38:37;;;;;;;14.75;12.13;;;;;;;;;;5028981;28;20480;-57
2024/02/13 05:41:04;;;;;;;14.40;11.20;;;;;;;;;;5030276;28;20723;-57
2024/02/13 05:43:30;;;;;;;16.05;13.20;;;;;;;;;;5029972;28;20022;-57
2024/02/13 05:45:56;;;;;;;15.98;12.48;;;;;;;;;;5054129;22;20052;-48
2024/02/13 05:48:24;;;;;;;15.20;12.85;;;;;;;;;;5032233;28;20633;-50
2024/02/13 05:50:54;;;;;;;15.13;11.30;;;;;;;;;;5032368;28;20108;-49
2024/02/13 05:53:21;;;;;;;14.32;10.88;;;;;;;;;;5032276;28;20025;-53
2024/02/13 05:55:47;;;;;;;14.93;12.25;;;;;;;;;;5031671;28;20026;-48
2024/02/13 05:58:13;;;;;;;14.32;10.75;;;;;;;;;;5030541;28;20396;-52
2024/02/13 06:00:40;;;;;;;14.27;10.63;;;;;;;;;;5031282;28;20037;-53
2024/02/13 06:03:06;;;;;;;15.90;11.20;;;;;;;;;;5031452;28;20403;-52
2024/02/13 06:05:32;;;;;;;14.95;12.10;;;;;;;;;;5031270;28;20024;-51
2024/02/13 06:07:58;;;;;;;15.02;12.10;;;;;;;;;;5031065;28;20586;-52
2024/02/13 06:10:24;;;;;;;15.90;11.52;;;;;;;;;;5031056;28;20029;-53
2024/02/13 06:12:51;;;;;;;14.30;10.77;;;;;;;;;;5030883;28;20029;-50
2024/02/13 06:15:17;;;;;;;15.95;11.55;;;;;;;;;;5030798;28;20490;-52
2024/02/13 06:17:43;;;;;;;14.40;11.23;;;;;;;;;;5030696;28;20034;-51
2024/02/13 06:20:12;;;;;;;21.55;12.80;;;;;;;;;;5030707;28;20100;-51
2024/02/13 06:22:38;;;;;;;16.05;12.27;;;;;;;;;;5030733;28;20021;-50
2024/02/13 06:25:05;;;;;;;17.48;12.75;;;;;;;;;;5030753;28;20031;-51
2024/02/13 06:27:34;;;;;;;14.32;10.88;;;;;;;;;;5030520;28;20026;-54
2024/02/13 06:30:00;;;;;;;14.02;10.25;;;;;;;;;;5030615;28;20448;-52
2024/02/13 06:32:26;;;;;;;14.25;10.73;;;;;;;;;;5030647;28;20033;-52
2024/02/13 06:34:53;;;;;;;14.50;10.90;;;;;;;;;;5030694;28;20074;-52
2024/02/13 06:37:19;;;;;;;19.15;13.00;;;;;;;;;;5030492;28;20022;-53
2024/02/13 06:39:46;;;;;;;14.18;10.35;;;;;;;;;;5030423;28;20024;-54
2024/02/13 06:42:12;;;;;;;14.35;11.00;;;;;;;;;;5030470;28;20025;-51
2024/02/13 06:44:38;;;;;;;14.07;10.10;;;;;;;;;;5031077;28;20021;-50
2024/02/13 06:47:06;;;;;;;14.40;10.70;;;;;;;;;;5030211;28;20121;-53
2024/02/13 06:49:33;;;;;;;16.80;12.30;;;;;;;;;;5029274;28;20025;-56
2024/02/13 06:51:59;;;;;;;15.30;11.00;;;;;;;;;;5030190;28;20030;-50
2024/02/13 06:54:25;;;;;;;16.15;10.70;;;;;;;;;;5030261;28;20029;-55
2024/02/13 06:56:51;;;;;;;14.20;10.65;;;;;;;;;;5028850;28;20387;-50
2024/02/13 06:59:18;;;;;;;14.05;10.02;;;;;;;;;;5030366;28;20021;-50
2024/02/13 07:01:44;;;;;;;14.30;10.80;;;;;;;;;;5030099;28;20380;-55
2024/02/13 07:04:13;;;;;;;14.30;10.45;;;;;;;;;;5029082;28;20025;-50
2024/02/13 07:06:39;;;;;;;14.80;10.80;;;;;;;;;;5028422;28;20128;-49
2024/02/13 07:09:06;;;;;;;14.20;10.40;;;;;;;;;;5029463;28;20032;-49
2024/02/13 07:11:34;;;;;;;14.20;10.55;;;;;;;;;;5029835;28;20460;-52
2024/02/13 07:14:00;;;;;;;14.27;10.60;;;;;;;;;;5029831;28;20041;-56
2024/02/13 07:16:26;;;;;;;17.85;11.88;;;;;;;;;;5029918;28;20029;-53
2024/02/13 07:18:52;;;;;;;16.35;13.25;;;;;;;;;;5029993;28;20029;-48
2024/02/13 07:21:19;;;;;;;14.50;10.98;;;;;;;;;;5029722;28;20484;-53
2024/02/13 07:23:46;;;;;;;14.02;9.95;;;;;;;;;;5028562;28;20446;-52
2024/02/13 07:26:12;;;;;;;16.52;12.35;;;;;;;;;;5029525;28;20365;-49
2024/02/13 07:28:38;;;;;;;15.80;13.10;;;;;;;;;;5029439;28;20491;-51
2024/02/13 07:31:04;;;;;;;14.23;10.35;;;;;;;;;;5029342;28;20109;-51
2024/02/13 07:33:31;;;;;;;14.20;10.25;;;;;;;;;;5029408;28;20109;-56
2024/02/13 07:36:00;;;;;;;14.88;11.65;;;;;;;;;;5032028;28;20096;-51
2024/02/13 07:38:26;;;;;;;16.35;10.70;;;;;;;;;;5033944;28;20075;-54
2024/02/13 07:40:52;;;;;;;13.90;9.50;;;;;;;;;;5033782;28;20028;-53
2024/02/13 07:43:18;;;;;;;14.40;10.07;;;;;;;;;;5033515;28;20026;-50
2024/02/13 07:45:45;;;;;;;17.13;10.10;;;;;;;;;;5033338;28;20376;-52
2024/02/13 07:48:11;;;;;;;15.38;10.55;;;;;;;;;;5033791;28;20043;-53
2024/02/13 07:50:38;;;;;;;14.73;11.27;;;;;;;;;;5033378;28;20558;-54
2024/02/13 07:53:06;;;;;;;14.20;9.10;;;;;;;;;;5033707;28;20025;-50
2024/02/13 07:55:35;;;;;;;14.93;9.98;;;;;;;;;;5033389;28;20091;-52
2024/02/13 07:58:01;;;;;;;13.50;8.50;;;;;;;;;;5031956;28;20565;-52
2024/02/13 08:00:29;;;;;;;13.25;8.18;;;;;;;;;;5033702;28;20029;-53
2024/02/13 08:02:55;;;;;;;20.80;9.60;;;;;;;;;;5033152;28;20013;-52
2024/02/13 08:05:21;;;;;;;14.00;9.25;;;;;;;;;;5033028;28;20064;-54
2024/02/13 08:07:46;;;;;;;13.43;8.15;;;;;;;;;;5032991;28;20476;-51
2024/02/13 08:10:13;;;;;;;14.52;10.05;;;;;;;;;;5033152;28;20064;-53
2024/02/13 08:12:39;;;;;;;13.43;8.30;;;;;;;;;;5032923;28;20032;-48
2024/02/13 08:15:06;;;;;;;13.80;9.27;;;;;;;;;;5032007;28;20029;-53
2024/02/13 08:17:33;;;;;;;14.35;9.13;;;;;;;;;;5033212;28;20393;-49
2024/02/13 08:19:59;;;;;;;14.57;9.88;;;;;;;;;;5033126;28;20029;-54
2024/02/13 08:22:25;;;;;;;14.00;9.80;;;;;;;;;;5033286;28;20562;-48
2024/02/13 08:24:51;;;;;;;13.55;8.63;;;;;;;;;;5033441;28;20030;-49
2024/02/13 08:27:19;;;;;;;14.30;10.63;;;;;;;;;;5033419;28;20048;-50
2024/02/13 08:29:45;;;;;;;17.48;12.65;;;;;;;;;;5033273;28;20423;-49
2024/02/13 08:32:11;;;;;;;14.00;9.35;;;;;;;;;;5032807;28;20091;-54
2024/02/13 08:34:38;;;;;;;14.23;9.75;;;;;;;;;;5033067;28;20030;-54
2024/02/13 08:37:04;;;;;;;16.30;11.35;;;;;;;;;;5032904;28;20112;-52
2024/02/13 08:39:31;;;;;;;14.05;9.65;;;;;;;;;;5033174;28;20048;-52
2024/02/13 08:41:58;;;;;;;13.75;9.18;;;;;;;;;;5032559;28;20021;-50
2024/02/13 08:44:24;;;;;;;13.67;9.30;;;;;;;;;;5031417;28;20057;-50
2024/02/13 08:46:50;;;;;;;13.45;8.48;;;;;;;;;;5032204;28;20384;-51
2024/02/13 08:49:16;;;;;;;13.60;8.80;;;;;;;;;;5032541;28;20022;-52
2024/02/13 08:51:43;;;;;;;15.48;10.15;;;;;;;;;;5030913;28;20032;-47
2024/02/13 08:54:11;;;;;;;13.55;8.50;;;;;;;;;;5032612;28;20026;-50
2024/02/13 08:56:38;;;;;;;14.20;9.30;;;;;;;;;;5032448;28;20060;-50
2024/02/13 08:59:04;;;;;;;15.52;9.70;;;;;;;;;;5032207;28;20030;-54
2024/02/13 09:01:30;;;;;;;14.32;9.32;;;;;;;;;;5031116;28;20068;-51
2024/02/13 09:03:56;;;;;;;13.63;8.82;;;;;;;;;;5032100;28;20025;-50
2024/02/13 09:06:22;;;;;;;14.32;9.63;;;;;;;;;;5030811;28;20068;-51
2024/02/13 09:08:48;;;;;;;14.23;10.65;;;;;;;;;;5032207;28;20032;-50
2024/02/13 09:11:14;;;;;;;13.82;9.40;;;;;;;;;;5031973;28;20018;-51
2024/02/13 09:13:41;;;;;;;14.10;9.57;;;;;;;;;;5030718;28;20028;-50
2024/02/13 09:16:10;;;;;;;13.85;9.43;;;;;;;;;;5031995;28;20040;-53
2024/02/13 09:18:38;;;;;;;15.52;11.45;;;;;;;;;;5032252;28;20343;-55
2024/02/13 09:21:06;;;;;;;14.95;9.75;;;;;;;;;;5031514;28;20037;-51
2024/02/13 09:23:33;;;;;;;14.10;9.55;;;;;;;;;;5031706;28;20029;-53
2024/02/13 09:25:59;;;;;;;14.30;9.32;;;;;;;;;;5032132;28;20443;-52
2024/02/13 09:28:25;;;;;;;13.60;8.90;;;;;;;;;;5032170;28;20029;-55
2024/02/13 09:30:51;;;;;;;13.65;8.95;;;;;;;;;;5030830;28;20033;-55
2024/02/13 09:33:22;;;;;;;18.60;9.45;;;;;;;;;;5031678;28;20352;-53
2024/02/13 09:35:50;;;;;;;15.35;10.00;;;;;;;;;;5030501;28;20031;-52
2024/02/13 09:38:16;;;;;;;13.70;9.10;;;;;;;;;;5027445;28;20025;-50
2024/02/13 09:40:43;;;;;;;13.75;9.10;;;;;;;;;;5025891;28;20279;-49
2024/02/13 09:43:09;;;;;;;13.68;8.93;;;;;;;;;;5015455;28;20044;-49
2024/02/13 09:45:39;;;;;;;13.55;8.70;;;;;;;;;;5011506;28;20018;-53
2024/02/13 09:48:09;;;;;;;13.85;9.27;;;;;;;;;;5011916;28;20451;-55
2024/02/13 09:50:39;;;;;;;14.52;9.52;;;;;;;;;;5011797;28;20022;-49
2024/02/13 09:53:08;;;;;;;13.77;9.05;;;;;;;;;;5011940;28;20431;-52
2024/02/13 09:55:35;;;;;;;14.57;9.88;;;;;;;;;;5011368;28;20056;-51
2024/02/13 09:58:01;;;;;;;14.10;9.98;;;;;;;;;;5010648;28;20067;-49
2024/02/13 10:00:27;;;;;;;14.20;10.50;;;;;;;;;;5011449;28;20488;-52
2024/02/13 10:02:54;;;;;;;13.80;9.27;;;;;;;;;;5021447;28;20052;-52
2024/02/13 10:05:20;;;;;;;13.70;9.00;;;;;;;;;;5021748;28;20032;-51
2024/02/13 10:07:47;;;;;;;13.65;8.90;;;;;;;;;;5020056;28;20485;-56
2024/02/13 10:10:13;;;;;;;15.13;9.43;;;;;;;;;;5020371;28;20104;-52
2024/02/13 10:12:59;;;;;;;14.00;9.63;;;;;;;;;;5021362;28;20033;-52
2024/02/13 10:15:27;;;;;;;14.25;10.52;;;;;;;;;;5020372;28;20017;-51
2024/02/13 10:17:54;;;;;;;14.32;9.68;;;;;;;;;;5020888;28;20022;-50
2024/02/13 10:20:20;;;;;;;13.70;9.00;;;;;;;;;;5019221;28;20105;-56
2024/02/13 10:22:47;;;;;;;13.55;8.55;;;;;;;;;;5020596;28;20506;-57
2024/02/13 10:25:14;;;;;;;13.63;8.82;;;;;;;;;;5020463;28;20022;-52
2024/02/13 10:27:41;;;;;;;14.20;9.10;;;;;;;;;;5019306;28;20095;-53
2024/02/13 10:30:07;;;;;;;14.18;9.23;;;;;;;;;;5020740;28;20379;-50
2024/02/13 10:32:38;;;;;;;13.57;8.38;;;;;;;;;;5020266;28;20017;-52
2024/02/13 10:35:08;;;;;;;14.00;8.55;;;;;;;;;;5019739;28;20029;-53
2024/02/13 10:37:34;;;;;;;13.63;8.82;;;;;;;;;;5019068;28;20022;-51
2024/02/13 10:40:05;;;;;;;13.45;8.35;;;;;;;;;;5023424;28;20490;-50
2024/02/13 10:42:37;;;;;;;15.07;9.30;;;;;;;;;;5030389;28;20026;-53
2024/02/13 10:45:06;;;;;;;13.48;8.40;;;;;;;;;;5028082;28;20022;-55
2024/02/13 10:47:33;;;;;;;13.52;8.23;;;;;;;;;;5029609;28;20079;-52
2024/02/13 10:50:00;;;;;;;13.98;8.77;;;;;;;;;;5030064;28;20097;-54
2024/02/13 10:52:26;;;;;;;13.43;8.23;;;;;;;;;;5029055;28;20021;-53
2024/02/13 10:54:53;;;;;;;13.43;8.40;;;;;;;;;;5029483;28;20033;-51
2024/02/13 10:57:19;;;;;;;15.93;9.35;;;;;;;;;;5030069;28;20030;-51
2024/02/13 10:59:45;;;;;;;13.10;7.70;;;;;;;;;;5030282;28;20088;-53
2024/02/13 11:02:17;;;;;;;13.38;8.07;;;;;;;;;;5029760;28;20514;-52
2024/02/13 11:04:43;;;;;;;13.55;8.20;;;;;;;;;;5030157;28;20025;-50
2024/02/13 11:07:15;;;;;;;13.38;8.00;;;;;;;;;;5030054;28;20108;-52
2024/02/13 11:09:41;;;;;;;14.88;9.65;;;;;;;;;;5029990;28;20018;-51
2024/02/13 11:12:09;;;;;;;13.50;8.38;;;;;;;;;;5029871;28;20510;-53
2024/02/13 11:14:35;;;;;;;13.50;8.20;;;;;;;;;;5030099;28;20022;-52
2024/02/13 11:17:03;;;;;;;13.35;8.30;;;;;;;;;;5030431;28;20402;-50
2024/02/13 11:19:42;;;;;;;15.10;9.85;;;;;;;;;;5030795;28;20049;-53
2024/02/13 11:22:08;;;;;;;13.48;8.45;;;;;;;;;;5029602;28;20602;-50
2024/02/13 11:25:01;;;;;;;13.85;9.65;;;;;;;;;;5030226;28;20096;-57
2024/02/13 11:27:27;;;;;;;13.45;8.13;;;;;;;;;;5027821;28;20037;-52
2024/02/13 11:30:00;;;;;;;13.48;8.32;;;;;;;;;;5030246;28;20022;-52
2024/02/13 11:32:29;;;;;;;13.05;7.70;;;;;;;;;;5030216;28;20590;-54
2024/02/13 11:34:58;;;;;;;13.40;8.18;;;;;;;;;;5030163;28;20057;-53
2024/02/13 11:37:27;;;;;;;12.13;7.10;;;;;;;;;;5029934;28;20026;-55
2024/02/13 11:39:53;;;;;;;;;;;;;;;;;;5029294;28;20028;-54
2024/02/13 11:42:19;;;;;;;12.15;6.75;;;;;;;;;;5030110;28;19916;-51
2024/02/13 11:44:48;;;;;;;13.02;8.70;;;;;;;;;;5030322;28;20022;-53
2024/02/13 11:47:18;;;;;;;11.27;6.55;;;;;;;;;;5051637;22;20729;-55
2024/02/13 11:49:46;;;;;;;13.32;7.18;;;;;;;;;;5028105;28;20075;-51
2024/02/13 11:52:14;;;;;;;12.30;7.50;;;;;;;;;;5027849;28;20036;-56
2024/02/13 11:54:40;;;;;;;12.63;7.53;;;;;;;;;;5028003;28;20134;-54
2024/02/13 11:57:09;;;;;;;22.88;8.45;;;;;;;;;;5035903;28;20035;-53
2024/02/13 11:59:36;;;;;;;11.65;6.85;;;;;;;;;;5028112;28;20052;-57
2024/02/13 12:02:03;;;;;;;12.30;7.20;;;;;;;;;;5028025;28;20092;-56
2024/02/13 12:04:30;;;;;;;11.55;6.82;;;;;;;;;;5026817;28;20021;-55
2024/02/13 12:06:58;;;;;;;11.30;6.60;;;;;;;;;;5026931;28;20144;-57
2024/02/13 12:09:25;;;;;;;11.30;6.63;;;;;;;;;;5028318;28;20014;-55
2024/02/13 12:11:51;;;;;;;11.70;6.85;;;;;;;;;;5024044;28;20120;-55
2024/02/13 12:14:18;;;;;;;10.95;6.40;;;;;;;;;;5026760;28;20052;-56
2024/02/13 12:16:44;;;;;;;11.02;6.45;;;;;;;;;;5027947;28;20440;-56
2024/02/13 12:19:10;;;;;;;15.30;7.45;;;;;;;;;;5027348;28;20503;-56
2024/02/13 12:21:39;;;;;;;11.82;6.93;;;;;;;;;;5027738;28;20139;-57
2024/02/13 12:24:07;;;;;;;11.55;6.75;;;;;;;;;;5029596;28;20116;-52
2024/02/13 12:26:33;;;;;;;12.00;7.10;;;;;;;;;;5030012;28;20025;-56
2024/02/13 12:28:59;;;;;;;11.40;6.70;;;;;;;;;;5029649;28;20388;-54
2024/02/13 12:31:27;;;;;;;11.80;6.93;;;;;;;;;;5029654;28;20484;-54
2024/02/13 12:34:06;;;;;;;11.63;6.80;;;;;;;;;;5029576;28;20395;-55
2024/02/13 12:36:32;;;;;;;15.02;7.97;;;;;;;;;;5031017;28;20021;-55
2024/02/13 12:39:08;;;;;;;11.23;6.65;;;;;;;;;;5031135;28;20037;-54
2024/02/13 12:41:35;;;;;;;12.32;7.15;;;;;;;;;;5030049;28;20499;-54
2024/02/13 12:44:01;;;;;;;11.70;6.90;;;;;;;;;;5030920;28;20156;-54
2024/02/13 12:46:34;;;;;;;12.05;7.00;;;;;;;;;;5029371;28;20025;-56
2024/02/13 12:49:00;;;;;;;11.57;6.90;;;;;;;;;;5031236;28;20022;-53
2024/02/13 12:51:28;;;;;;;11.95;6.93;;;;;;;;;;5030665;28;20643;-57
2024/02/13 12:53:54;;;;;;;12.00;7.00;;;;;;;;;;5031007;28;20104;-56
2024/02/13 12:56:22;;;;;;;12.13;7.03;;;;;;;;;;5029866;28;20514;-55
2024/02/13 12:58:51;;;;;;;12.43;7.22;;;;;;;;;;5030865;28;20101;-57
2024/02/13 13:01:22;;;;;;;11.60;6.80;;;;;;;;;;5030688;28;20026;-54
2024/02/13 13:03:48;;;;;;;11.85;6.90;;;;;;;;;;5030669;28;20041;-57
2024/02/13 13:06:15;;;;;;;12.52;7.25;;;;;;;;;;5030675;28;20434;-54
2024/02/13 13:08:42;;;;;;;12.18;7.20;;;;;;;;;;5030794;28;20046;-54
2024/02/13 13:11:08;;;;;;;12.20;7.20;;;;;;;;;;5030858;28;20454;-54
2024/02/13 13:13:34;;;;;;;12.10;7.10;;;;;;;;;;5030709;28;20033;-55
2024/02/13 13:16:02;;;;;;;12.10;7.20;;;;;;;;;;5030588;28;20096;-55
2024/02/13 13:18:29;;;;;;;12.60;7.47;;;;;;;;;;5030600;28;20033;-56
2024/02/13 13:20:56;;;;;;;12.27;7.15;;;;;;;;;;5030366;28;20087;-54
2024/02/13 13:23:24;;;;;;;11.85;6.95;;;;;;;;;;5030295;28;20328;-58
2024/02/13 13:25:54;;;;;;;12.13;7.07;;;;;;;;;;5030550;28;20021;-55
2024/02/13 13:28:22;;;;;;;12.30;7.20;;;;;;;;;;5030077;28;20024;-57
2024/02/13 13:30:53;;;;;;;12.65;7.35;;;;;;;;;;5030364;28;20045;-54
2024/02/13 13:33:19;;;;;;;12.65;7.38;;;;;;;;;;5029994;28;20475;-56
2024/02/13 13:35:46;;;;;;;12.45;7.20;;;;;;;;;;5030307;28;20060;-55
2024/02/13 13:38:13;;;;;;;13.40;8.57;;;;;;;;;;5028727;28;20076;-54
2024/02/13 13:40:39;;;;;;;12.30;7.15;;;;;;;;;;5029801;28;20026;-54
2024/02/13 13:43:06;;;;;;;12.50;7.30;;;;;;;;;;5029505;28;20018;-54
2024/02/13 13:45:32;;;;;;;12.60;7.30;;;;;;;;;;5028453;28;20033;-55
2024/02/13 13:47:59;;;;;;;12.55;7.35;;;;;;;;;;5029688;28;20457;-56
2024/02/13 13:50:25;;;;;;;12.82;7.50;;;;;;;;;;5029851;28;20036;-55
2024/02/13 13:52:54;;;;;;;12.30;7.10;;;;;;;;;;5029440;28;20056;-56
2024/02/13 13:55:23;;;;;;;12.07;7.05;;;;;;;;;;5029674;28;20120;-50
2024/02/13 13:57:49;;;;;;;12.70;7.72;;;;;;;;;;5029674;28;20392;-56
2024/02/13 14:00:20;;;;;;;12.25;7.10;;;;;;;;;;5029897;28;20025;-58
2024/02/13 14:02:46;;;;;;;12.55;7.43;;;;;;;;;;5028331;28;20116;-52
2024/02/13 14:05:12;;;;;;;13.05;7.60;;;;;;;;;;5029565;28;20049;-56
2024/02/13 14:07:39;;;;;;;13.05;7.60;;;;;;;;;;5029456;28;20069;-53
2024/02/13 14:10:12;;;;;;;12.48;7.40;;;;;;;;;;5029280;28;20113;-52
2024/02/13 14:12:45;;;;;;;12.32;7.20;;;;;;;;;;5028689;28;20037;-55
2024/02/13 14:15:11;;;;;;;12.38;7.22;;;;;;;;;;5028311;28;20048;-54
2024/02/13 14:17:37;;;;;;;12.88;7.50;;;;;;;;;;5028211;28;20041;-54
2024/02/13 14:20:07;;;;;;;12.10;7.10;;;;;;;;;;5029503;28;20357;-56
2024/02/13 14:22:37;;;;;;;12.38;7.20;;;;;;;;;;5029123;28;20030;-56
2024/02/13 14:25:03;;;;;;;12.18;7.18;;;;;;;;;;5028037;28;20021;-52
2024/02/13 14:27:29;;;;;;;12.38;7.28;;;;;;;;;;5029043;28;20418;-56
2024/02/13 14:29:55;;;;;;;12.55;7.80;;;;;;;;;;5028955;28;20021;-55